TimeEDT,TemperatureF,Dew PointF,Humidity,Sea Level PressureIn,VisibilityMPH,Wind Direction,Wind SpeedMPH,Gust SpeedMPH,PrecipitationIn,Events,Conditions,WindDirDegrees,DateUTC
12:54 AM,57.2,46.4,67,-9999,45.0,NW,9.2,-,N/A,,Partly Cloudy,310,2013-07-17 04:54:00
1:52 AM,55.4,48.2,77,-9999,45.0,WNW,9.2,-,N/A,,Partly Cloudy,300,2013-07-17 05:52:00
2:51 AM,55.4,48.2,77,-9999,40.0,WNW,4.6,-,N/A,,Partly Cloudy,300,2013-07-17 06:51:00
3:54 AM,57.2,44.6,63,-9999,40.0,WNW,9.2,-,N/A,,Partly Cloudy,300,2013-07-17 07:54:00
4:55 AM,55.4,48.2,77,-9999,60.0,NW,17.3,-,N/A,,Partly Cloudy,310,2013-07-17 08:55:00
5:53 AM,57.2,48.2,72,-9999,60.0,NW,18.4,-,N/A,,Partly Cloudy,320,2013-07-17 09:53:00
6:51 AM,57.2,50.0,77,-9999,55.0,NW,15.0,-,N/A,,Partly Cloudy,310,2013-07-17 10:51:00
7:55 AM,55.4,51.8,88,-9999,60.0,NW,17.3,-,N/A,,Mostly Cloudy,310,2013-07-17 11:55:00
8:49 AM,57.2,55.4,94,-9999,25.0,WNW,20.7,-,N/A,,Mostly Cloudy,300,2013-07-17 12:49:00
9:47 AM,57.2,57.2,100,-9999,0.1,WNW,21.9,-,N/A,Fog,Fog,290,2013-07-17 13:47:00
10:49 AM,57.2,57.2,100,-9999,0.0,WNW,31.1,-,N/A,Fog,Fog,290,2013-07-17 14:49:00
11:54 AM,57.2,57.2,100,-9999,0.1,WNW,33.4,38.0,N/A,Fog,Fog,290,2013-07-17 15:54:00
12:59 PM,60.8,57.2,88,-9999,20.0,WNW,29.9,35.7,N/A,,Mostly Cloudy,290,2013-07-17 16:59:00
1:52 PM,62.6,59.0,88,-9999,20.0,West,31.1,40.3,N/A,,Overcast,280,2013-07-17 17:52:00
2:55 PM,62.6,59.0,88,-9999,20.0,West,28.8,32.2,N/A,,Mostly Cloudy,280,2013-07-17 18:55:00
3:58 PM,62.6,59.0,88,-9999,20.0,WNW,33.4,-,N/A,,Mostly Cloudy,290,2013-07-17 19:58:00
4:58 PM,62.6,57.2,82,-9999,20.0,West,39.1,47.2,N/A,,Mostly Cloudy,270,2013-07-17 20:58:00
5:50 PM,62.6,57.2,82,-9999,20.0,West,40.3,-,N/A,,Mostly Cloudy,280,2013-07-17 21:50:00
6:53 PM,59.0,59.0,100,-9999,0.1,West,32.2,-,N/A,Fog,Fog,280,2013-07-17 22:53:00
7:47 PM,59.0,59.0,100,-9999,0.1,West,34.5,-,N/A,Fog,Fog,280,2013-07-17 23:47:00
8:52 PM,55.4,55.4,100,-9999,0.1,NNW,44.9,58.7,N/A,Fog-Rain-Thunderstorm,Heavy Thunderstorms and Rain,330,2013-07-18 00:52:00
9:55 PM,57.2,57.2,100,-9999,0.1,WNW,52.9,69.0,N/A,Fog,Fog,300,2013-07-18 01:55:00
10:51 PM,57.2,57.2,100,-9999,0.0,WNW,36.8,48.3,N/A,Fog,Fog,300,2013-07-18 02:51:00
11:55 PM,55.4,55.4,100,-9999,0.1,NW,55.2,61.0,N/A,Fog-Rain-Thunderstorm,Thunderstorms and Rain,310,2013-07-18 03:55:00